Time,TemperatureF,DewpointF,PressureIn,WindDirection,WindDirectionDegrees,WindSpeedMPH,WindSpeedGustMPH,Humidity,HourlyPrecipIn,Conditions,Clouds,dailyrainin,SoftwareType,DateUTC
2013-04-21 00:00:00,29.5,20.9,30.40,West,270,0.0,0.0,70,0.00,,,-99.99,open2300 version1.11,2013-04-21 04:00:00,
2013-04-21 00:05:00,29.5,20.9,30.40,West,270,0.0,0.0,70,0.00,,,-99.99,open2300 version1.11,2013-04-21 04:05:00,
2013-04-21 00:10:00,29.3,21.1,30.40,West,270,0.0,0.0,71,0.00,,,-99.99,open2300 version1.11,2013-04-21 04:10:00,
2013-04-21 00:15:00,29.3,21.1,30.40,West,270,0.0,0.0,71,0.00,,,-99.99,open2300 version1.11,2013-04-21 04:15:00,
2013-04-21 00:20:00,29.3,21.1,30.40,West,270,0.0,0.0,71,0.00,,,-99.99,open2300 version1.11,2013-04-21 04:20:00,
2013-04-21 00:25:00,29.1,21.2,30.40,West,270,0.0,0.0,72,0.00,,,-99.99,open2300 version1.11,2013-04-21 04:25:00,
2013-04-21 00:30:00,29.1,21.2,30.41,West,270,0.0,0.0,72,0.00,,,-99.99,open2300 version1.11,2013-04-21 04:30:00,
2013-04-21 00:35:00,29.1,21.2,30.41,West,270,0.0,0.0,72,0.00,,,-99.99,open2300 version1.11,2013-04-21 04:35:00,
2013-04-21 00:40:00,28.9,21.0,30.40,West,270,0.0,0.0,72,0.00,,,-99.99,open2300 version1.11,2013-04-21 04:40:00,
2013-04-21 00:45:00,28.8,21.2,30.41,West,270,0.0,0.0,73,0.00,,,-99.99,open2300 version1.11,2013-04-21 04:45:00,
2013-04-21 00:55:00,28.6,21.0,30.41,West,270,0.0,0.0,73,0.00,,,-99.99,open2300 version1.11,2013-04-21 04:55:00,
2013-04-21 01:05:00,28.6,21.3,30.41,West,270,0.0,0.0,74,0.00,,,-99.99,open2300 version1.11,2013-04-21 05:05:00,
2013-04-21 01:10:00,28.6,21.3,30.41,West,270,0.0,0.0,74,0.00,,,-99.99,open2300 version1.11,2013-04-21 05:10:00,
2013-04-21 01:20:00,28.2,21.0,30.42,West,270,0.0,0.0,74,0.00,,,-99.99,open2300 version1.11,2013-04-21 05:20:00,
2013-04-21 01:25:00,28.2,21.0,30.42,West,270,0.0,0.0,74,0.00,,,-99.99,open2300 version1.11,2013-04-21 05:25:00,
2013-04-21 01:35:00,28.0,21.1,30.42,West,270,0.0,0.0,75,0.00,,,-99.99,open2300 version1.11,2013-04-21 05:35:00,
2013-04-21 01:40:00,28.0,21.1,30.42,West,270,0.0,0.0,75,0.00,,,-99.99,open2300 version1.11,2013-04-21 05:40:00,
2013-04-21 01:50:00,27.9,20.9,30.42,West,270,0.0,0.0,75,0.00,,,-99.99,open2300 version1.11,2013-04-21 05:50:00,
2013-04-21 02:00:00,27.7,21.1,30.42,West,270,0.0,0.0,76,0.00,,,-99.99,open2300 version1.11,2013-04-21 06:00:00,
2013-04-21 02:05:00,27.7,21.1,30.42,West,270,0.0,0.0,76,0.00,,,-99.99,open2300 version1.11,2013-04-21 06:05:00,
2013-04-21 02:10:00,27.7,21.1,30.42,West,270,0.0,0.0,76,0.00,,,-99.99,open2300 version1.11,2013-04-21 06:10:00,
2013-04-21 02:15:00,27.7,21.1,30.42,West,270,0.0,0.0,76,0.00,,,-99.99,open2300 version1.11,2013-04-21 06:15:00,
2013-04-21 02:20:00,27.5,20.9,30.42,West,270,0.0,0.0,76,0.00,,,-99.99,open2300 version1.11,2013-04-21 06:20:00,
2013-04-21 02:25:00,27.5,20.9,30.42,West,270,0.0,0.0,76,0.00,,,-99.99,open2300 version1.11,2013-04-21 06:25:00,
2013-04-21 02:30:00,27.5,20.9,30.43,West,270,0.0,0.0,76,0.00,,,-99.99,open2300 version1.11,2013-04-21 06:30:00,
2013-04-21 02:35:00,27.5,21.2,30.43,West,270,0.0,0.0,77,0.00,,,-99.99,open2300 version1.11,2013-04-21 06:35:00,
2013-04-21 02:40:00,27.3,21.0,30.43,West,270,0.0,0.0,77,0.00,,,-99.99,open2300 version1.11,2013-04-21 06:40:00,
2013-04-21 02:45:00,27.3,21.0,30.43,West,270,0.0,0.0,77,0.00,,,-99.99,open2300 version1.11,2013-04-21 06:45:00,
2013-04-21 02:55:00,27.1,20.8,30.43,West,270,0.0,0.0,77,0.00,,,-99.99,open2300 version1.11,2013-04-21 06:55:00,
2013-04-21 03:00:00,27.1,21.1,30.43,West,270,0.0,0.0,78,0.00,,,-99.99,open2300 version1.11,2013-04-21 07:00:00,
2013-04-21 03:05:00,27.0,20.9,30.43,West,270,0.0,0.0,78,0.00,,,-99.99,open2300 version1.11,2013-04-21 07:05:00,
2013-04-21 03:10:00,27.0,20.9,30.43,West,270,0.0,0.0,78,0.00,,,-99.99,open2300 version1.11,2013-04-21 07:10:00,
2013-04-21 03:15:00,27.0,20.9,30.44,West,270,0.0,0.0,78,0.00,,,-99.99,open2300 version1.11,2013-04-21 07:15:00,
2013-04-21 03:20:00,26.8,20.8,30.44,West,270,0.0,0.0,78,0.00,,,-99.99,open2300 version1.11,2013-04-21 07:20:00,
2013-04-21 03:25:00,26.8,20.8,30.44,West,270,0.0,0.0,78,0.00,,,-99.99,open2300 version1.11,2013-04-21 07:25:00,
2013-04-21 03:30:00,26.6,20.6,30.44,West,270,0.0,0.0,78,0.00,,,-99.99,open2300 version1.11,2013-04-21 07:30:00,
2013-04-21 03:35:00,26.4,20.7,30.44,West,270,0.0,0.0,79,0.00,,,-99.99,open2300 version1.11,2013-04-21 07:35:00,
2013-04-21 03:40:00,26.4,20.7,30.44,West,270,0.0,0.0,79,0.00,,,-99.99,open2300 version1.11,2013-04-21 07:40:00,
2013-04-21 03:45:00,26.2,20.6,30.44,West,270,0.0,0.0,79,0.00,,,-99.99,open2300 version1.11,2013-04-21 07:45:00,
2013-04-21 03:50:00,26.2,20.6,30.44,West,270,0.0,0.0,79,0.00,,,-99.99,open2300 version1.11,2013-04-21 07:50:00,
2013-04-21 04:00:00,26.2,20.6,30.45,West,270,0.0,0.0,79,0.00,,,-99.99,open2300 version1.11,2013-04-21 08:00:00,
2013-04-21 04:05:00,26.2,20.6,30.45,West,270,0.0,0.0,79,0.00,,,-99.99,open2300 version1.11,2013-04-21 08:05:00,
2013-04-21 04:10:00,26.2,20.6,30.45,West,270,0.0,0.0,79,0.00,,,-99.99,open2300 version1.11,2013-04-21 08:10:00,
2013-04-21 04:20:00,26.2,20.6,30.45,West,270,0.0,0.0,79,0.00,,,-99.99,open2300 version1.11,2013-04-21 08:20:00,
2013-04-21 04:30:00,26.1,20.4,30.46,West,270,0.0,0.0,79,0.00,,,-99.99,open2300 version1.11,2013-04-21 08:30:00,
2013-04-21 04:35:00,25.9,20.6,30.46,West,270,0.0,0.0,80,0.00,,,-99.99,open2300 version1.11,2013-04-21 08:35:00,
2013-04-21 04:40:00,25.9,20.6,30.46,West,270,0.0,0.0,80,0.00,,,-99.99,open2300 version1.11,2013-04-21 08:40:00,
2013-04-21 04:45:00,25.9,20.6,30.46,West,270,0.0,0.0,80,0.00,,,-99.99,open2300 version1.11,2013-04-21 08:45:00,
2013-04-21 04:55:00,25.9,20.6,30.46,West,270,0.0,0.0,80,0.00,,,-99.99,open2300 version1.11,2013-04-21 08:55:00,
2013-04-21 05:05:00,25.7,20.4,30.47,West,270,0.0,0.0,80,0.00,,,-99.99,open2300 version1.11,2013-04-21 09:05:00,
2013-04-21 05:10:00,25.5,20.2,30.47,West,270,0.0,0.0,80,0.00,,,-99.99,open2300 version1.11,2013-04-21 09:10:00,
2013-04-21 05:20:00,25.7,20.4,30.47,West,270,0.0,0.0,80,0.00,,,-99.99,open2300 version1.11,2013-04-21 09:20:00,
2013-04-21 05:30:00,25.5,20.2,30.47,West,270,0.0,0.0,80,0.00,,,-99.99,open2300 version1.11,2013-04-21 09:30:00,
2013-04-21 05:40:00,25.5,20.5,30.48,West,270,0.0,0.0,81,0.00,,,-99.99,open2300 version1.11,2013-04-21 09:40:00,
2013-04-21 05:50:00,25.5,20.5,30.47,West,270,0.0,0.0,81,0.00,,,-99.99,open2300 version1.11,2013-04-21 09:50:00,
2013-04-21 05:55:00,25.3,20.3,30.48,West,270,0.0,0.0,81,0.00,,,-99.99,open2300 version1.11,2013-04-21 09:55:00,
2013-04-21 06:05:00,25.3,20.3,30.49,West,270,0.0,0.0,81,0.00,,,-99.99,open2300 version1.11,2013-04-21 10:05:00,
2013-04-21 06:10:00,25.2,20.2,30.49,West,270,0.0,0.0,81,0.00,,,-99.99,open2300 version1.11,2013-04-21 10:10:00,
2013-04-21 06:15:00,25.2,20.2,30.49,West,270,0.0,0.0,81,0.00,,,-99.99,open2300 version1.11,2013-04-21 10:15:00,
2013-04-21 06:25:00,25.2,20.2,30.49,West,270,0.0,0.0,81,0.00,,,-99.99,open2300 version1.11,2013-04-21 10:25:00,
2013-04-21 06:30:00,25.0,20.0,30.50,West,270,0.0,0.0,81,0.00,,,-99.99,open2300 version1.11,2013-04-21 10:30:00,
2013-04-21 06:35:00,25.0,20.0,30.50,West,270,0.0,0.0,81,0.00,,,-99.99,open2300 version1.11,2013-04-21 10:35:00,
2013-04-21 06:40:00,25.0,20.0,30.50,West,270,0.0,0.0,81,0.00,,,-99.99,open2300 version1.11,2013-04-21 10:40:00,
2013-04-21 06:45:00,25.0,20.0,30.50,West,270,0.0,0.0,81,0.00,,,-99.99,open2300 version1.11,2013-04-21 10:45:00,
2013-04-21 06:50:00,25.2,20.2,30.51,West,270,0.0,0.0,81,0.00,,,-99.99,open2300 version1.11,2013-04-21 10:50:00,
2013-04-21 06:55:00,25.2,20.2,30.51,West,270,0.0,0.0,81,0.00,,,-99.99,open2300 version1.11,2013-04-21 10:55:00,
2013-04-21 07:00:00,25.3,20.3,30.51,West,270,0.0,0.0,81,0.00,,,-99.99,open2300 version1.11,2013-04-21 11:00:00,
2013-04-21 07:05:00,25.3,20.6,30.51,West,270,0.0,0.0,82,0.00,,,-99.99,open2300 version1.11,2013-04-21 11:05:00,
2013-04-21 07:10:00,25.5,20.8,30.52,West,270,0.0,0.0,82,0.00,,,-99.99,open2300 version1.11,2013-04-21 11:10:00,
2013-04-21 07:20:00,26.2,21.7,30.52,West,270,0.0,0.0,83,0.00,,,-99.99,open2300 version1.11,2013-04-21 11:20:00,
2013-04-21 07:25:00,27.0,22.4,30.52,West,270,0.0,0.0,83,0.00,,,-99.99,open2300 version1.11,2013-04-21 11:25:00,
2013-04-21 07:30:00,27.9,23.6,30.52,West,270,0.0,0.0,84,0.00,,,-99.99,open2300 version1.11,2013-04-21 11:30:00,
2013-04-21 07:40:00,29.5,24.9,30.52,West,270,0.0,0.0,83,0.00,,,-99.99,open2300 version1.11,2013-04-21 11:40:00,
2013-04-21 07:45:00,30.4,25.6,30.53,West,270,0.0,0.0,82,0.00,,,-99.99,open2300 version1.11,2013-04-21 11:45:00,
2013-04-21 07:50:00,30.9,25.8,30.53,West,270,0.0,0.0,81,0.00,,,-99.99,open2300 version1.11,2013-04-21 11:50:00,
2013-04-21 08:00:00,32.2,26.8,30.53,West,270,0.0,0.0,80,0.00,,,-99.99,open2300 version1.11,2013-04-21 12:00:00,
2013-04-21 08:05:00,32.7,27.2,30.54,West,270,0.0,0.0,80,0.00,,,-99.99,open2300 version1.11,2013-04-21 12:05:00,
2013-04-21 08:10:00,33.3,27.7,30.54,West,270,0.0,0.0,80,0.00,,,-99.99,open2300 version1.11,2013-04-21 12:10:00,
2013-04-21 08:15:00,33.6,28.1,30.54,West,270,0.0,0.0,80,0.00,,,-99.99,open2300 version1.11,2013-04-21 12:15:00,
2013-04-21 08:20:00,34.3,28.4,30.55,NNW,337,0.0,0.0,79,0.00,,,-99.99,open2300 version1.11,2013-04-21 12:20:00,
2013-04-21 08:25:00,34.9,28.6,30.55,North,0,0.0,0.0,78,0.00,,,-99.99,open2300 version1.11,2013-04-21 12:25:00,
2013-04-21 08:30:00,35.4,29.2,30.56,North,0,0.0,0.0,78,0.00,,,-99.99,open2300 version1.11,2013-04-21 12:30:00,
2013-04-21 08:40:00,36.3,29.4,30.55,NNE,22,0.0,0.0,76,0.00,,,-99.99,open2300 version1.11,2013-04-21 12:40:00,
2013-04-21 08:50:00,37.4,30.2,30.56,NE,45,0.0,0.0,75,0.00,,,-99.99,open2300 version1.11,2013-04-21 12:50:00,
2013-04-21 09:00:00,38.3,30.4,30.56,SSE,149,0.8,5.6,73,0.00,,,-99.99,open2300 version1.11,2013-04-21 13:00:00,
2013-04-21 09:05:00,38.8,30.5,30.56,SE,132,1.4,5.4,72,0.00,,,-99.99,open2300 version1.11,2013-04-21 13:05:00,
2013-04-21 09:10:00,39.0,30.4,30.56,SSE,157,0.6,5.8,71,0.00,,,-99.99,open2300 version1.11,2013-04-21 13:10:00,
2013-04-21 09:15:00,39.6,30.6,30.56,SE,144,1.3,4.5,70,0.00,,,-99.99,open2300 version1.11,2013-04-21 13:15:00,
2013-04-21 09:20:00,39.9,30.5,30.56,SSE,149,1.0,4.2,69,0.00,,,-99.99,open2300 version1.11,2013-04-21 13:20:00,
2013-04-21 09:25:00,40.1,30.3,30.56,SSE,149,1.4,5.4,68,0.00,,,-99.99,open2300 version1.11,2013-04-21 13:25:00,
2013-04-21 09:30:00,40.6,30.9,30.57,SSE,150,1.6,6.9,68,0.00,,,-99.99,open2300 version1.11,2013-04-21 13:30:00,
2013-04-21 09:35:00,40.8,30.7,30.56,SSE,162,0.2,2.5,67,0.00,,,-99.99,open2300 version1.11,2013-04-21 13:35:00,
2013-04-21 09:40:00,40.8,30.3,30.56,SE,124,0.9,6.7,66,0.00,,,-99.99,open2300 version1.11,2013-04-21 13:40:00,
2013-04-21 09:50:00,40.8,28.8,30.56,ESE,111,3.4,8.9,62,0.00,,,-99.99,open2300 version1.11,2013-04-21 13:50:00,
2013-04-21 09:55:00,40.5,28.4,30.56,East,98,2.3,5.4,62,0.00,,,-99.99,open2300 version1.11,2013-04-21 13:55:00,
2013-04-21 10:00:00,40.5,28.8,30.56,SE,131,1.5,6.7,63,0.00,,,-99.99,open2300 version1.11,2013-04-21 14:00:00,
2013-04-21 10:05:00,40.6,28.6,30.56,ESE,121,1.8,5.4,62,0.00,,,-99.99,open2300 version1.11,2013-04-21 14:05:00,
2013-04-21 10:10:00,40.8,28.8,30.56,SE,130,1.9,6.3,62,0.00,,,-99.99,open2300 version1.11,2013-04-21 14:10:00,
2013-04-21 10:15:00,41.2,28.8,30.56,ESE,119,2.2,6.5,61,0.00,,,-99.99,open2300 version1.11,2013-04-21 14:15:00,
2013-04-21 10:20:00,41.2,28.8,30.56,ESE,113,1.1,6.9,61,0.00,,,-99.99,open2300 version1.11,2013-04-21 14:20:00,
2013-04-21 10:30:00,41.7,28.9,30.56,SE,135,3.0,7.2,60,0.00,,,-99.99,open2300 version1.11,2013-04-21 14:30:00,
2013-04-21 10:35:00,41.7,28.4,30.57,ESE,118,2.8,7.6,59,0.00,,,-99.99,open2300 version1.11,2013-04-21 14:35:00,
2013-04-21 10:45:00,41.5,27.8,30.57,ESE,112,2.7,6.7,58,0.00,,,-99.99,open2300 version1.11,2013-04-21 14:45:00,
2013-04-21 10:55:00,41.7,28.0,30.57,East,98,3.2,8.3,58,0.00,,,-99.99,open2300 version1.11,2013-04-21 14:55:00,
2013-04-21 11:00:00,41.7,27.5,30.57,ESE,113,2.0,4.9,57,0.00,,,-99.99,open2300 version1.11,2013-04-21 15:00:00,
2013-04-21 11:05:00,41.7,27.5,30.57,ESE,106,2.7,6.3,57,0.00,,,-99.99,open2300 version1.11,2013-04-21 15:05:00,
2013-04-21 11:10:00,41.7,27.1,30.57,East,100,2.8,8.1,56,0.00,,,-99.99,open2300 version1.11,2013-04-21 15:10:00,
2013-04-21 11:20:00,41.7,27.1,30.57,East,99,4.4,11.2,56,0.00,,,-99.99,open2300 version1.11,2013-04-21 15:20:00,
2013-04-21 11:25:00,42.1,27.9,30.57,SE,141,2.8,6.9,57,0.00,,,-99.99,open2300 version1.11,2013-04-21 15:25:00,
2013-04-21 11:30:00,42.1,27.0,30.57,ESE,109,4.1,8.9,55,0.00,,,-99.99,open2300 version1.11,2013-04-21 15:30:00,
2013-04-21 11:35:00,42.1,27.0,30.57,East,88,2.1,6.0,55,0.00,,,-99.99,open2300 version1.11,2013-04-21 15:35:00,
2013-04-21 11:40:00,42.4,27.8,30.57,ESE,119,2.9,6.7,56,0.00,,,-99.99,open2300 version1.11,2013-04-21 15:40:00,
2013-04-21 11:45:00,42.6,27.1,30.56,ESE,109,3.5,9.6,54,0.00,,,-99.99,open2300 version1.11,2013-04-21 15:45:00,
2013-04-21 11:50:00,42.6,26.6,30.56,East,96,3.6,10.5,53,0.00,,,-99.99,open2300 version1.11,2013-04-21 15:50:00,
2013-04-21 11:55:00,42.6,26.6,30.56,ESE,103,4.6,8.9,53,0.00,,,-99.99,open2300 version1.11,2013-04-21 15:55:00,
2013-04-21 12:00:00,42.8,26.8,30.56,East,99,3.0,8.3,53,0.00,,,-99.99,open2300 version1.11,2013-04-21 16:00:00,
2013-04-21 12:05:00,43.0,26.6,30.56,ESE,123,3.6,9.2,52,0.00,,,-99.99,open2300 version1.11,2013-04-21 16:05:00,
2013-04-21 12:10:00,43.5,27.5,30.56,SE,130,1.4,6.0,53,0.00,,,-99.99,open2300 version1.11,2013-04-21 16:10:00,
2013-04-21 12:15:00,44.4,28.3,30.56,SE,135,2.0,7.4,53,0.00,,,-99.99,open2300 version1.11,2013-04-21 16:15:00,
2013-04-21 12:20:00,45.1,29.0,30.55,SE,137,1.8,6.5,53,0.00,,,-99.99,open2300 version1.11,2013-04-21 16:20:00,
2013-04-21 12:30:00,45.3,27.8,30.55,ESE,105,3.0,8.3,50,0.00,,,-99.99,open2300 version1.11,2013-04-21 16:30:00,
2013-04-21 12:35:00,45.5,27.9,30.55,SE,127,2.1,6.5,50,0.00,,,-99.99,open2300 version1.11,2013-04-21 16:35:00,
2013-04-21 12:40:00,45.7,27.6,30.55,East,94,3.0,6.5,49,0.00,,,-99.99,open2300 version1.11,2013-04-21 16:40:00,
2013-04-21 12:45:00,45.7,27.6,30.55,ESE,111,3.4,8.9,49,0.00,,,-99.99,open2300 version1.11,2013-04-21 16:45:00,
2013-04-21 12:50:00,45.7,27.6,30.55,East,101,3.0,9.8,49,0.00,,,-99.99,open2300 version1.11,2013-04-21 16:50:00,
2013-04-21 12:55:00,46.0,27.9,30.54,ESE,119,4.4,11.9,49,0.00,,,-99.99,open2300 version1.11,2013-04-21 16:55:00,
2013-04-21 13:00:00,46.0,27.4,30.54,SE,128,3.0,9.6,48,0.00,,,-99.99,open2300 version1.11,2013-04-21 17:00:00,
2013-04-21 13:05:00,46.6,27.8,30.54,ESE,117,4.0,8.9,48,0.00,,,-99.99,open2300 version1.11,2013-04-21 17:05:00,
2013-04-21 13:10:00,46.8,28.5,30.54,SE,137,2.4,6.9,49,0.00,,,-99.99,open2300 version1.11,2013-04-21 17:10:00,
2013-04-21 13:20:00,47.5,28.6,30.53,ESE,111,3.8,12.1,48,0.00,,,-99.99,open2300 version1.11,2013-04-21 17:20:00,
2013-04-21 13:25:00,47.7,28.8,30.53,East,91,2.4,8.5,48,0.00,,,-99.99,open2300 version1.11,2013-04-21 17:25:00,
2013-04-21 13:30:00,48.0,29.1,30.52,ESE,119,1.6,8.3,48,0.00,,,-99.99,open2300 version1.11,2013-04-21 17:30:00,
2013-04-21 13:35:00,48.2,28.8,30.52,ESE,108,4.4,9.4,47,0.00,,,-99.99,open2300 version1.11,2013-04-21 17:35:00,
2013-04-21 13:40:00,48.0,28.1,30.53,SE,124,5.8,12.8,46,0.00,,,-99.99,open2300 version1.11,2013-04-21 17:40:00,
2013-04-21 13:45:00,48.2,28.2,30.52,SSE,152,1.8,7.4,46,0.00,,,-99.99,open2300 version1.11,2013-04-21 17:45:00,
2013-04-21 13:55:00,48.7,28.7,30.52,SE,126,3.1,10.3,46,0.00,,,-99.99,open2300 version1.11,2013-04-21 17:55:00,
2013-04-21 14:00:00,48.7,28.7,30.52,ESE,114,1.9,6.7,46,0.00,,,-99.99,open2300 version1.11,2013-04-21 18:00:00,
2013-04-21 14:10:00,49.3,29.2,30.52,ESE,115,3.3,10.1,46,0.00,,,-99.99,open2300 version1.11,2013-04-21 18:10:00,
2013-04-21 14:20:00,49.1,29.6,30.52,SSE,148,0.8,5.4,47,0.00,,,-99.99,open2300 version1.11,2013-04-21 18:20:00,
2013-04-21 14:25:00,49.5,30.0,30.52,ESE,118,1.6,5.6,47,0.00,,,-99.99,open2300 version1.11,2013-04-21 18:25:00,
2013-04-21 14:30:00,49.6,29.6,30.51,SE,132,3.6,8.7,46,0.00,,,-99.99,open2300 version1.11,2013-04-21 18:30:00,
2013-04-21 14:35:00,49.8,29.8,30.51,SSE,159,2.5,6.7,46,0.00,,,-99.99,open2300 version1.11,2013-04-21 18:35:00,
2013-04-21 14:40:00,49.8,29.8,30.51,ESE,113,3.8,6.9,46,0.00,,,-99.99,open2300 version1.11,2013-04-21 18:40:00,
2013-04-21 14:50:00,49.8,29.8,30.51,ESE,114,1.7,7.8,46,0.00,,,-99.99,open2300 version1.11,2013-04-21 18:50:00,
2013-04-21 15:00:00,49.8,29.2,30.51,SE,130,4.8,12.1,45,0.00,,,-99.99,open2300 version1.11,2013-04-21 19:00:00,
2013-04-21 15:05:00,49.6,29.1,30.50,ESE,106,3.4,7.8,45,0.00,,,-99.99,open2300 version1.11,2013-04-21 19:05:00,
2013-04-21 15:10:00,49.3,29.2,30.50,ESE,116,2.7,5.4,46,0.00,,,-99.99,open2300 version1.11,2013-04-21 19:10:00,
2013-04-21 15:15:00,49.3,29.2,30.50,ESE,104,2.4,6.9,46,0.00,,,-99.99,open2300 version1.11,2013-04-21 19:15:00,
2013-04-21 15:20:00,49.6,30.1,30.50,ESE,115,0.3,2.7,47,0.00,,,-99.99,open2300 version1.11,2013-04-21 19:20:00,
2013-04-21 15:30:00,49.8,30.3,30.50,SSE,159,0.9,5.1,47,0.00,,,-99.99,open2300 version1.11,2013-04-21 19:30:00,
2013-04-21 15:35:00,50.2,30.7,30.50,SE,125,2.1,7.2,47,0.00,,,-99.99,open2300 version1.11,2013-04-21 19:35:00,
2013-04-21 15:40:00,50.4,30.8,30.48,SE,134,2.5,11.4,47,0.00,,,-99.99,open2300 version1.11,2013-04-21 19:40:00,
2013-04-21 15:45:00,50.4,30.3,30.48,SSE,159,1.9,5.8,46,0.00,,,-99.99,open2300 version1.11,2013-04-21 19:45:00,
2013-04-21 15:50:00,50.2,30.1,30.48,SE,131,1.1,5.8,46,0.00,,,-99.99,open2300 version1.11,2013-04-21 19:50:00,
2013-04-21 15:55:00,50.5,30.4,30.48,SE,137,2.0,9.6,46,0.00,,,-99.99,open2300 version1.11,2013-04-21 19:55:00,
2013-04-21 16:05:00,50.2,30.1,30.47,SE,139,2.6,8.7,46,0.00,,,-99.99,open2300 version1.11,2013-04-21 20:05:00,
2013-04-21 16:10:00,50.2,30.1,30.47,ESE,115,2.4,7.8,46,0.00,,,-99.99,open2300 version1.11,2013-04-21 20:10:00,
2013-04-21 16:20:00,49.8,29.8,30.47,ESE,102,4.5,8.5,46,0.00,,,-99.99,open2300 version1.11,2013-04-21 20:20:00,
2013-04-21 16:25:00,49.6,29.6,30.47,SE,135,3.7,15.0,46,0.00,,,-99.99,open2300 version1.11,2013-04-21 20:25:00,
2013-04-21 16:30:00,49.6,29.6,30.47,SE,131,1.9,8.3,46,0.00,,,-99.99,open2300 version1.11,2013-04-21 20:30:00,
2013-04-21 16:35:00,49.6,30.1,30.47,SSE,147,1.0,4.9,47,0.00,,,-99.99,open2300 version1.11,2013-04-21 20:35:00,
2013-04-21 16:40:00,49.6,30.1,30.46,ESE,108,3.2,8.3,47,0.00,,,-99.99,open2300 version1.11,2013-04-21 20:40:00,
2013-04-21 16:45:00,49.6,30.1,30.46,SE,127,2.5,10.7,47,0.00,,,-99.99,open2300 version1.11,2013-04-21 20:45:00,
2013-04-21 16:50:00,49.5,30.0,30.46,ESE,117,1.7,4.7,47,0.00,,,-99.99,open2300 version1.11,2013-04-21 20:50:00,
2013-04-21 16:55:00,49.6,30.1,30.46,SE,136,4.0,10.5,47,0.00,,,-99.99,open2300 version1.11,2013-04-21 20:55:00,
2013-04-21 17:00:00,49.3,29.8,30.46,SE,132,3.5,10.3,47,0.00,,,-99.99,open2300 version1.11,2013-04-21 21:00:00,
2013-04-21 17:05:00,49.1,29.6,30.46,ESE,123,2.5,7.8,47,0.00,,,-99.99,open2300 version1.11,2013-04-21 21:05:00,
2013-04-21 17:10:00,48.9,29.4,30.45,ESE,106,3.4,7.8,47,0.00,,,-99.99,open2300 version1.11,2013-04-21 21:10:00,
2013-04-21 17:15:00,48.6,29.1,30.45,East,98,4.1,8.5,47,0.00,,,-99.99,open2300 version1.11,2013-04-21 21:15:00,
2013-04-21 17:25:00,48.2,28.8,30.45,SE,124,4.3,8.3,47,0.00,,,-99.99,open2300 version1.11,2013-04-21 21:25:00,
2013-04-21 17:30:00,48.0,28.6,30.45,ESE,109,4.1,8.5,47,0.00,,,-99.99,open2300 version1.11,2013-04-21 21:30:00,
2013-04-21 17:35:00,48.0,28.6,30.44,ESE,115,3.9,8.5,47,0.00,,,-99.99,open2300 version1.11,2013-04-21 21:35:00,
2013-04-21 17:40:00,47.8,28.4,30.45,ESE,119,1.8,7.6,47,0.00,,,-99.99,open2300 version1.11,2013-04-21 21:40:00,
2013-04-21 17:45:00,48.0,29.1,30.44,SE,135,1.7,6.9,48,0.00,,,-99.99,open2300 version1.11,2013-04-21 21:45:00,
2013-04-21 17:50:00,47.8,28.4,30.45,ESE,114,3.9,7.6,47,0.00,,,-99.99,open2300 version1.11,2013-04-21 21:50:00,
2013-04-21 17:55:00,47.7,28.8,30.45,ESE,111,2.4,7.2,48,0.00,,,-99.99,open2300 version1.11,2013-04-21 21:55:00,
2013-04-21 18:00:00,47.5,28.6,30.45,SE,131,2.8,7.4,48,0.00,,,-99.99,open2300 version1.11,2013-04-21 22:00:00,
2013-04-21 18:05:00,47.3,28.5,30.45,SE,129,2.6,6.3,48,0.00,,,-99.99,open2300 version1.11,2013-04-21 22:05:00,
2013-04-21 18:10:00,47.1,28.9,30.45,ESE,116,3.3,9.6,49,0.00,,,-99.99,open2300 version1.11,2013-04-21 22:10:00,
2013-04-21 18:20:00,46.8,28.5,30.45,ESE,113,4.9,10.5,49,0.00,,,-99.99,open2300 version1.11,2013-04-21 22:20:00,
2013-04-21 18:25:00,46.6,28.4,30.45,ESE,110,3.7,7.2,49,0.00,,,-99.99,open2300 version1.11,2013-04-21 22:25:00,
2013-04-21 18:35:00,46.0,27.9,30.45,ESE,111,4.8,8.1,49,0.00,,,-99.99,open2300 version1.11,2013-04-21 22:35:00,
2013-04-21 18:45:00,45.7,28.1,30.44,ESE,117,3.7,8.3,50,0.00,,,-99.99,open2300 version1.11,2013-04-21 22:45:00,
2013-04-21 18:50:00,45.7,28.6,30.44,ESE,112,2.1,7.6,51,0.00,,,-99.99,open2300 version1.11,2013-04-21 22:50:00,
2013-04-21 19:00:00,45.3,28.2,30.45,ESE,114,3.7,7.8,51,0.00,,,-99.99,open2300 version1.11,2013-04-21 23:00:00,
2013-04-21 19:05:00,45.1,28.1,30.45,ESE,121,2.1,7.2,51,0.00,,,-99.99,open2300 version1.11,2013-04-21 23:05:00,
2013-04-21 19:10:00,45.0,27.9,30.44,ESE,121,2.5,7.4,51,0.00,,,-99.99,open2300 version1.11,2013-04-21 23:10:00,
2013-04-21 19:15:00,44.8,27.8,30.45,ESE,115,2.8,7.8,51,0.00,,,-99.99,open2300 version1.11,2013-04-21 23:15:00,
2013-04-21 19:20:00,44.8,28.2,30.44,SE,128,2.2,8.3,52,0.00,,,-99.99,open2300 version1.11,2013-04-21 23:20:00,
2013-04-21 19:25:00,44.4,27.9,30.44,ESE,116,2.2,5.4,52,0.00,,,-99.99,open2300 version1.11,2013-04-21 23:25:00,
2013-04-21 19:35:00,44.2,28.1,30.44,ESE,110,1.4,4.9,53,0.00,,,-99.99,open2300 version1.11,2013-04-21 23:35:00,
2013-04-21 19:40:00,43.9,27.8,30.44,ESE,108,2.7,6.5,53,0.00,,,-99.99,open2300 version1.11,2013-04-21 23:40:00,
2013-04-21 19:45:00,43.7,27.6,30.45,ESE,120,3.4,7.4,53,0.00,,,-99.99,open2300 version1.11,2013-04-21 23:45:00,
2013-04-21 19:55:00,43.3,27.3,30.45,ESE,111,3.0,7.8,53,0.00,,,-99.99,open2300 version1.11,2013-04-21 23:55:00,
2013-04-21 20:05:00,42.6,26.2,30.44,ESE,123,1.2,3.1,52,0.00,,,-99.99,open2300 version1.11,2013-04-22 00:05:00,
2013-04-21 20:10:00,42.6,26.6,30.44,ESE,117,1.3,6.7,53,0.00,,,-99.99,open2300 version1.11,2013-04-22 00:10:00,
2013-04-21 20:15:00,42.4,26.0,30.45,SE,126,3.3,8.1,52,0.00,,,-99.99,open2300 version1.11,2013-04-22 00:15:00,
2013-04-21 20:20:00,42.1,25.2,30.44,ESE,120,2.4,5.4,51,0.00,,,-99.99,open2300 version1.11,2013-04-22 00:20:00,
2013-04-21 20:25:00,41.9,25.1,30.44,ESE,121,1.5,5.1,51,0.00,,,-99.99,open2300 version1.11,2013-04-22 00:25:00,
2013-04-21 20:35:00,41.5,24.7,30.44,SE,143,1.8,5.6,51,0.00,,,-99.99,open2300 version1.11,2013-04-22 00:35:00,
2013-04-21 20:45:00,41.0,24.2,30.44,ESE,123,1.4,4.7,51,0.00,,,-99.99,open2300 version1.11,2013-04-22 00:45:00,
2013-04-21 20:50:00,40.8,24.0,30.44,SE,138,1.3,6.0,51,0.00,,,-99.99,open2300 version1.11,2013-04-22 00:50:00,
2013-04-21 20:55:00,40.6,23.4,30.44,ESE,118,2.5,5.1,50,0.00,,,-99.99,open2300 version1.11,2013-04-22 00:55:00,
2013-04-21 21:00:00,40.5,23.7,30.44,ESE,117,1.6,7.4,51,0.00,,,-99.99,open2300 version1.11,2013-04-22 01:00:00,
2013-04-21 21:05:00,40.3,23.5,30.44,SE,133,1.7,6.7,51,0.00,,,-99.99,open2300 version1.11,2013-04-22 01:05:00,
2013-04-21 21:15:00,39.9,23.2,30.44,SE,135,1.0,5.4,51,0.00,,,-99.99,open2300 version1.11,2013-04-22 01:15:00,
2013-04-21 21:20:00,39.9,23.6,30.45,SE,130,1.7,5.4,52,0.00,,,-99.99,open2300 version1.11,2013-04-22 01:20:00,
2013-04-21 21:25:00,39.7,23.4,30.45,ESE,117,1.2,3.6,52,0.00,,,-99.99,open2300 version1.11,2013-04-22 01:25:00,
2013-04-21 21:35:00,39.4,23.1,30.45,ESE,119,1.3,4.9,52,0.00,,,-99.99,open2300 version1.11,2013-04-22 01:35:00,
2013-04-21 21:45:00,39.4,23.6,30.44,SE,136,2.0,5.8,53,0.00,,,-99.99,open2300 version1.11,2013-04-22 01:45:00,
2013-04-21 21:55:00,39.0,23.2,30.45,ESE,112,1.4,2.9,53,0.00,,,-99.99,open2300 version1.11,2013-04-22 01:55:00,
2013-04-21 22:00:00,39.0,23.7,30.45,SE,131,1.4,6.7,54,0.00,,,-99.99,open2300 version1.11,2013-04-22 02:00:00,
2013-04-21 22:05:00,38.8,23.5,30.44,SE,134,1.7,4.9,54,0.00,,,-99.99,open2300 version1.11,2013-04-22 02:05:00,
2013-04-21 22:15:00,38.8,23.5,30.44,ESE,118,1.4,7.8,54,0.00,,,-99.99,open2300 version1.11,2013-04-22 02:15:00,
2013-04-21 22:20:00,38.7,23.8,30.44,SE,129,1.1,4.5,55,0.00,,,-99.99,open2300 version1.11,2013-04-22 02:20:00,
2013-04-21 22:30:00,38.5,24.0,30.44,SE,132,0.6,3.6,56,0.00,,,-99.99,open2300 version1.11,2013-04-22 02:30:00,
2013-04-21 22:40:00,38.5,24.5,30.44,ESE,112,0.6,2.9,57,0.00,,,-99.99,open2300 version1.11,2013-04-22 02:40:00,
2013-04-21 22:45:00,38.3,24.3,30.44,ESE,119,0.9,3.1,57,0.00,,,-99.99,open2300 version1.11,2013-04-22 02:45:00,
2013-04-21 22:50:00,38.1,24.6,30.44,ESE,122,0.5,4.2,58,0.00,,,-99.99,open2300 version1.11,2013-04-22 02:50:00,
2013-04-21 22:55:00,38.1,24.6,30.44,ESE,121,1.6,6.0,58,0.00,,,-99.99,open2300 version1.11,2013-04-22 02:55:00,
2013-04-21 23:00:00,37.9,24.4,30.44,SE,129,1.1,6.5,58,0.00,,,-99.99,open2300 version1.11,2013-04-22 03:00:00,
2013-04-21 23:05:00,37.9,24.4,30.44,ESE,121,1.3,5.8,58,0.00,,,-99.99,open2300 version1.11,2013-04-22 03:05:00,
2013-04-21 23:10:00,37.8,24.3,30.44,SE,138,0.9,6.3,58,0.00,,,-99.99,open2300 version1.11,2013-04-22 03:10:00,
2013-04-21 23:20:00,37.4,23.9,30.44,SE,141,2.0,10.7,58,0.00,,,-99.99,open2300 version1.11,2013-04-22 03:20:00,
2013-04-21 23:25:00,37.4,23.9,30.44,SSE,151,0.5,6.3,58,0.00,,,-99.99,open2300 version1.11,2013-04-22 03:25:00,
2013-04-21 23:30:00,37.2,23.3,30.43,SE,135,0.9,4.0,57,0.00,,,-99.99,open2300 version1.11,2013-04-22 03:30:00,
2013-04-21 23:40:00,37.0,23.2,30.43,SE,132,1.2,4.2,57,0.00,,,-99.99,open2300 version1.11,2013-04-22 03:40:00,
2013-04-21 23:45:00,36.9,22.6,30.43,SE,142,1.3,4.9,56,0.00,,,-99.99,open2300 version1.11,2013-04-22 03:45:00,
2013-04-21 23:55:00,36.5,22.3,30.43,ESE,112,0.2,1.8,56,0.00,,,-99.99,open2300 version1.11,2013-04-22 03:55:00,